Aeroporto :
LOGIN :

Iscrizione | Disclaimer

   EN    FR    IT 

 










Sommario :    VFR   VFR Marginale   IFR   IFR Intensivo   IFR Molto Intensivo
Visibilità : 
Base nubi : 
>= 8 km
>= 3000ft
5 / 8 km
1000 / 3000 ft
1500m / 5 km
500 / 1000 ft
800 / 1500m
200 / 500 ft
< 800m
< 200 ft
Simboli :   Temporali  Nebbia  Neve Forte  Precipitazioni Forti  Vento > 20 kt
SIGMETs :   Varie  Temporali  Ghiacco  Turbolenza  Onda orograficha  Ceneri Vulcaniche






- Altitudine del aeroporto : 257 ft
- Codice IATA : MAN


EGCC - Manchester

ULTIMO METAR :
  • 020720Z AUTO 05006KT 9999 FEW036 02/01 Q0990 TEMPO SHRA

METARs OBSOLETI :
  • 020650Z AUTO 04006KT 9999 BKN046 02/01 Q0990 TEMPO SHRA
  • 020620Z AUTO 05005KT 9999 BKN012 02/01 Q0990 NOSIG
  • 020550Z AUTO 06004KT 9999 BKN012 02/01 Q0990 NOSIG
  • 020520Z AUTO 06005KT 9999 NCD 01/00 Q0990 NOSIG
  • 020450Z AUTO 07004KT 9999 SCT032 02/01 Q0990
  • 020420Z AUTO 07005KT 9999 OVC028 03/01 Q0990 NOSIG
  • 012050Z AUTO VRB02KT 9999 NCD 03/01 Q0990
  • 020350Z AUTO 08004KT 9999 SCT026 BKN033 OVC040 02/01 Q0990
  • 020320Z AUTO 08004KT 9999 OVC031 02/01 Q0990
  • 020250Z AUTO 07004KT 050V110 9999 OVC028 02/01 Q0990
  • 020220Z AUTO 05005KT 9999 BKN026 02/01 Q0990

TAF TAF EGCC
Valido dal 02 a 06 ore il 03 a 12 ore UTC


020457Z 0206/0312 06004KT 9999 SCT030
PROB30
TEMPO 0206/0210 8000 -SHRA BKN012
TEMPO 0210/0224 8000 -SHRA BKN012
PROB30
TEMPO 0210/0220 4000 SHRA BKN008
TEMPO 0300/0304 BKN012
ATIS : +44 161 499 2324



MetMap, La meteo Aeronautica in un colpo d'occhio ! - Copyright ORBIFLY Dicembre 2007 - Disclaimer

ORBIFLY MET'MAP TEAM :

Programmazione e sviluppo : Alexandra Zaïnal
Concezione : Baudouin d'Aumeries
Supporto tecnico e logistico : Manuel Goepfert
Aiuto : Marc-Olivier Méhu
Aiuto per la traduzione : Arnaldo La Scala




FONTI E CREDITI :

   NOAA